createdAt,value
2017-07-10T00:00:18.227Z,92.30
2017-07-10T00:02:46.783Z,91.90
2017-07-10T00:05:14.847Z,91.70
2017-07-10T00:07:43.470Z,91.60
2017-07-10T00:10:11.623Z,91.80
2017-07-10T00:12:39.787Z,91.40
2017-07-10T00:15:07.955Z,91.40
2017-07-10T00:17:36.136Z,91.60
2017-07-10T00:20:04.207Z,92.00
2017-07-10T00:22:32.681Z,92.10
2017-07-10T00:25:00.780Z,92.40
2017-07-10T00:27:28.936Z,91.60
2017-07-10T00:29:57.103Z,90.50
2017-07-10T00:32:25.181Z,90.00
2017-07-10T00:34:53.271Z,88.70
2017-07-10T00:37:21.335Z,88.30
2017-07-10T00:39:49.807Z,86.20
2017-07-10T00:42:17.979Z,84.50
2017-07-10T00:44:46.864Z,85.20
2017-07-10T00:47:14.941Z,85.70
2017-07-10T00:49:43.770Z,85.60
2017-07-10T00:52:12.627Z,85.60
2017-07-10T00:54:40.685Z,85.20
2017-07-10T00:57:08.779Z,85.70
2017-07-10T00:59:36.867Z,88.10
2017-07-10T01:02:04.931Z,87.00
2017-07-10T01:04:33.018Z,88.60
2017-07-10T01:07:01.850Z,88.40
2017-07-10T01:09:29.930Z,87.60
2017-07-10T01:11:57.986Z,86.80
2017-07-10T01:14:26.052Z,87.50
2017-07-10T01:16:54.135Z,86.90
2017-07-10T01:19:22.231Z,87.50
2017-07-10T01:21:50.318Z,88.30
2017-07-10T01:24:18.480Z,88.60
2017-07-10T01:26:46.959Z,88.80
2017-07-10T01:29:15.135Z,90.00
2017-07-10T01:31:43.366Z,90.10
2017-07-10T01:34:11.818Z,90.00
2017-07-10T01:36:39.959Z,90.60
2017-07-10T01:39:08.141Z,91.20
2017-07-10T01:41:37.027Z,91.70
2017-07-10T01:44:05.203Z,91.70
2017-07-10T01:46:33.671Z,91.80
2017-07-10T01:49:01.859Z,92.10
2017-07-10T01:51:30.352Z,92.30
2017-07-10T01:53:58.516Z,91.50
2017-07-10T01:56:26.691Z,92.20
2017-07-10T01:58:54.868Z,92.10
2017-07-10T02:01:23.030Z,91.60
2017-07-10T02:03:51.914Z,90.90
2017-07-10T02:06:20.107Z,90.00
2017-07-10T02:08:48.282Z,89.70
2017-07-10T02:11:16.864Z,90.00
2017-07-10T02:13:44.953Z,90.20
2017-07-10T02:16:13.103Z,90.20
2017-07-10T02:18:41.567Z,89.60
2017-07-10T02:21:09.660Z,90.40
2017-07-10T02:23:37.830Z,89.10
2017-07-10T02:26:05.919Z,87.10
2017-07-10T02:28:34.010Z,86.00
2017-07-10T02:31:02.074Z,87.10
2017-07-10T02:33:30.237Z,87.20
2017-07-10T02:35:58.316Z,86.50
2017-07-10T02:38:26.466Z,87.20
2017-07-10T02:40:54.647Z,87.30
2017-07-10T02:43:23.224Z,88.10
2017-07-10T02:45:51.703Z,88.90
2017-07-10T02:48:19.784Z,88.70
2017-07-10T02:50:47.960Z,90.00
2017-07-10T02:53:16.132Z,89.90
2017-07-10T02:55:44.308Z,90.50
2017-07-10T02:58:12.479Z,89.60
2017-07-10T03:00:40.646Z,89.70
2017-07-10T03:03:08.827Z,89.20
2017-07-10T03:05:36.898Z,88.40
2017-07-10T03:08:05.076Z,88.00
2017-07-10T03:10:33.555Z,88.30
2017-07-10T03:13:01.726Z,90.00
2017-07-10T03:15:29.904Z,89.50
2017-07-10T03:17:57.967Z,88.90
2017-07-10T03:20:26.539Z,89.30
2017-07-10T03:22:54.739Z,90.00
2017-07-10T03:25:22.953Z,89.30
2017-07-10T03:27:51.799Z,88.30
2017-07-10T03:30:19.975Z,87.10
2017-07-10T03:32:48.440Z,86.80
2017-07-10T03:35:16.632Z,86.50
2017-07-10T03:37:44.802Z,86.10
2017-07-10T03:40:13.388Z,85.70
2017-07-10T03:42:41.852Z,85.40
2017-07-10T03:45:10.754Z,85.40
2017-07-10T03:47:38.935Z,85.30
2017-07-10T03:50:07.004Z,85.30
2017-07-10T03:52:35.183Z,86.00
2017-07-10T03:55:03.234Z,86.20
2017-07-10T03:57:31.739Z,85.80
2017-07-10T03:59:59.912Z,86.10
2017-07-10T04:02:28.078Z,86.50
2017-07-10T04:04:56.561Z,86.70
2017-07-10T04:07:25.039Z,87.10
2017-07-10T04:09:53.145Z,87.00
2017-07-10T04:12:22.712Z,89.00
2017-07-10T04:14:50.794Z,88.60
2017-07-10T04:17:18.867Z,87.00
2017-07-10T04:19:46.944Z,87.90
2017-07-10T04:22:15.502Z,87.20
2017-07-10T04:24:43.623Z,86.50
2017-07-10T04:27:11.767Z,86.90
2017-07-10T04:29:39.953Z,87.40
2017-07-10T04:32:08.771Z,85.50
2017-07-10T04:34:36.912Z,86.80
2017-07-10T04:37:05.382Z,87.30
2017-07-10T04:39:33.558Z,86.00
2017-07-10T04:42:01.630Z,84.70
2017-07-10T04:44:29.812Z,84.30
2017-07-10T04:46:57.876Z,86.60
2017-07-10T04:49:26.050Z,85.70
2017-07-10T04:51:54.131Z,85.20
2017-07-10T04:54:22.198Z,86.30
2017-07-10T04:56:50.379Z,85.20
2017-07-10T04:59:18.447Z,85.80
2017-07-10T05:01:46.932Z,85.60
2017-07-10T05:04:15.407Z,85.10
2017-07-10T05:06:43.586Z,84.00
2017-07-10T05:09:11.727Z,83.80
2017-07-10T05:11:39.832Z,83.10
2017-07-10T05:14:07.998Z,83.70
2017-07-10T05:16:36.180Z,84.10
2017-07-10T05:19:04.244Z,84.20
2017-07-10T05:21:32.324Z,84.30
2017-07-10T05:24:00.604Z,84.30
2017-07-10T05:26:29.492Z,86.20
2017-07-10T05:28:57.664Z,85.60
2017-07-10T05:31:25.839Z,86.10
2017-07-10T05:33:54.016Z,86.20
2017-07-10T05:36:22.100Z,85.50
2017-07-10T05:38:50.260Z,85.50
2017-07-10T05:41:18.358Z,84.70
2017-07-10T05:43:46.915Z,85.40
2017-07-10T05:46:15.011Z,85.90
2017-07-10T05:48:43.143Z,86.10
2017-07-10T05:51:11.236Z,86.10
2017-07-10T05:53:39.318Z,86.00
2017-07-10T05:56:07.480Z,87.30
2017-07-10T05:58:35.958Z,87.40
2017-07-10T06:01:04.851Z,87.30
2017-07-10T06:03:32.911Z,85.80
2017-07-10T06:06:01.806Z,86.30
2017-07-10T06:08:29.867Z,86.80
2017-07-10T06:10:58.369Z,87.60
2017-07-10T06:13:26.443Z,87.10
2017-07-10T06:15:54.517Z,86.40
2017-07-10T06:18:22.679Z,85.60
2017-07-10T06:20:50.756Z,84.70
2017-07-10T06:23:19.642Z,84.00
2017-07-10T06:25:47.714Z,83.50
2017-07-10T06:28:15.804Z,82.50
2017-07-10T06:30:43.960Z,82.80
2017-07-10T06:33:12.040Z,83.20
2017-07-10T06:35:40.217Z,83.40
2017-07-10T06:38:08.466Z,83.10
2017-07-10T06:40:36.665Z,83.80
2017-07-10T06:43:04.731Z,85.70
2017-07-10T06:45:32.802Z,85.20
2017-07-10T06:48:00.984Z,85.50
2017-07-10T06:50:29.038Z,84.60
2017-07-10T06:52:59.080Z,85.40
2017-07-10T06:55:27.143Z,85.80
2017-07-10T06:57:55.216Z,86.60
2017-07-10T07:00:23.382Z,87.90
2017-07-10T07:02:51.842Z,88.00
2017-07-10T07:05:19.935Z,87.20
2017-07-10T07:07:48.424Z,86.30
2017-07-10T07:10:16.489Z,86.40
2017-07-10T07:12:44.980Z,87.10
2017-07-10T07:15:13.056Z,87.00
2017-07-10T07:17:41.526Z,85.80
2017-07-10T07:20:09.710Z,86.00
2017-07-10T07:22:37.798Z,85.90
2017-07-10T07:25:05.952Z,86.50
2017-07-10T07:27:34.028Z,86.70
2017-07-10T07:30:02.194Z,85.70
2017-07-10T07:32:30.269Z,86.30
2017-07-10T07:34:58.352Z,85.70
2017-07-10T07:37:26.407Z,86.50
2017-07-10T07:39:54.466Z,85.20
2017-07-10T07:42:22.554Z,85.10
2017-07-10T07:44:50.623Z,85.10
2017-07-10T07:47:18.707Z,82.40
2017-07-10T07:49:46.755Z,81.80
2017-07-10T07:52:15.239Z,81.10
2017-07-10T07:54:43.295Z,81.30
2017-07-10T07:57:11.746Z,81.50
2017-07-10T07:59:40.897Z,82.20
2017-07-10T08:02:09.379Z,81.80
2017-07-10T08:04:37.455Z,78.50
2017-07-10T08:07:05.731Z,78.80
2017-07-10T08:09:33.787Z,77.50
2017-07-10T08:12:01.870Z,73.40
2017-07-10T08:14:30.065Z,72.80
2017-07-10T08:16:58.123Z,72.20
2017-07-10T08:19:26.291Z,69.50
2017-07-10T08:21:54.351Z,70.60
2017-07-10T08:24:22.403Z,68.20
2017-07-10T08:26:50.606Z,69.30
2017-07-10T08:29:18.667Z,70.20
2017-07-10T08:31:46.728Z,70.20
2017-07-10T08:34:14.831Z,71.60
2017-07-10T08:36:43.824Z,70.20
2017-07-10T08:39:11.897Z,70.70
2017-07-10T08:41:39.989Z,65.20
2017-07-10T08:44:08.135Z,62.80
2017-07-10T08:46:36.410Z,61.80
2017-07-10T08:49:04.483Z,59.70
2017-07-10T08:51:32.554Z,60.60
2017-07-10T08:54:00.736Z,61.10
2017-07-10T08:56:28.912Z,58.90
2017-07-10T08:58:56.984Z,56.70
2017-07-10T09:01:25.155Z,55.20
2017-07-10T09:03:53.330Z,55.80
2017-07-10T09:06:22.164Z,54.80
2017-07-10T09:08:50.610Z,54.70
2017-07-10T09:11:18.684Z,53.80
2017-07-10T09:13:47.155Z,54.50
2017-07-10T09:16:15.635Z,52.00
2017-07-10T09:18:43.715Z,53.80
2017-07-10T09:21:12.218Z,53.20
2017-07-10T09:23:40.365Z,51.40
2017-07-10T09:26:08.822Z,52.20
2017-07-10T09:28:36.894Z,52.90
2017-07-10T09:31:05.339Z,51.90
2017-07-10T09:33:34.183Z,51.40
2017-07-10T09:36:02.664Z,50.00
2017-07-10T09:38:30.722Z,51.30
2017-07-10T09:40:58.817Z,52.10
2017-07-10T09:43:26.858Z,51.10
2017-07-10T09:45:54.956Z,50.60
2017-07-10T09:48:23.136Z,51.10
2017-07-10T09:50:51.304Z,49.20
2017-07-10T09:53:19.364Z,49.70
2017-07-10T09:55:47.451Z,50.10
2017-07-10T09:58:15.494Z,50.90
2017-07-10T10:00:43.715Z,50.30
2017-07-10T10:03:11.776Z,51.00
2017-07-10T10:05:39.839Z,50.70
2017-07-10T10:08:07.978Z,50.10
2017-07-10T10:10:36.336Z,48.70
2017-07-10T10:13:04.352Z,47.10
2017-07-10T10:15:32.419Z,47.40
2017-07-10T10:18:00.487Z,45.80
2017-07-10T10:20:28.700Z,45.40
2017-07-10T10:22:56.759Z,45.50
2017-07-10T10:25:24.820Z,44.40
2017-07-10T10:27:53.912Z,45.20
2017-07-10T10:30:22.015Z,43.90
2017-07-10T10:32:50.069Z,44.60
2017-07-10T10:35:18.195Z,45.40
2017-07-10T10:37:46.652Z,45.70
2017-07-10T10:40:14.707Z,45.70
2017-07-10T10:42:42.812Z,47.40
2017-07-10T10:45:11.683Z,48.30
2017-07-10T10:47:39.697Z,47.80
2017-07-10T10:50:08.162Z,45.60
2017-07-10T10:52:37.012Z,44.40
2017-07-10T10:55:05.072Z,42.80
2017-07-10T10:57:33.518Z,43.20
2017-07-10T11:00:01.610Z,41.30
2017-07-10T11:02:29.662Z,43.00
2017-07-10T11:04:58.131Z,44.70
2017-07-10T11:07:27.302Z,45.80
2017-07-10T11:09:55.444Z,47.10
2017-07-10T11:12:23.611Z,46.90
2017-07-10T11:14:51.674Z,47.60
2017-07-10T11:17:19.859Z,46.30
2017-07-10T11:19:48.026Z,46.10
2017-07-10T11:22:18.888Z,46.00
2017-07-10T11:24:47.759Z,46.60
2017-07-10T11:27:15.842Z,47.10
2017-07-10T11:29:43.924Z,47.20
2017-07-10T11:32:12.080Z,48.30
2017-07-10T11:34:40.151Z,48.10
2017-07-10T11:37:08.467Z,46.60
2017-07-10T11:39:36.504Z,44.30
2017-07-10T11:42:04.555Z,41.20
2017-07-10T11:44:32.694Z,40.90
2017-07-10T11:47:00.750Z,40.70
2017-07-10T11:49:28.812Z,40.90
2017-07-10T11:51:56.895Z,41.00
2017-07-10T11:54:24.951Z,41.50
2017-07-10T11:56:53.489Z,42.10
2017-07-10T11:59:21.587Z,42.20
2017-07-10T12:01:49.660Z,41.40
2017-07-10T12:04:17.845Z,42.00
2017-07-10T12:06:46.012Z,41.80
2017-07-10T12:09:14.189Z,42.00
2017-07-10T12:11:42.251Z,42.40
2017-07-10T12:14:10.328Z,43.30
2017-07-10T12:16:38.609Z,43.50
2017-07-10T12:19:06.793Z,43.30
2017-07-10T12:21:34.956Z,44.20
2017-07-10T12:24:03.128Z,45.30
2017-07-10T12:26:31.187Z,46.00
2017-07-10T12:28:59.383Z,46.90
2017-07-10T12:31:27.442Z,47.80
2017-07-10T12:33:55.596Z,46.80
2017-07-10T12:36:23.672Z,48.40
2017-07-10T12:38:51.772Z,48.70
2017-07-10T12:41:19.943Z,49.60
2017-07-10T12:43:48.415Z,55.90
2017-07-10T12:46:17.328Z,57.30
2017-07-10T12:48:45.490Z,57.10
2017-07-10T12:51:13.548Z,57.50
2017-07-10T12:53:41.638Z,58.60
2017-07-10T12:56:09.805Z,57.50
2017-07-10T12:58:37.858Z,58.50
2017-07-10T13:01:07.173Z,59.70
2017-07-10T13:03:35.233Z,59.70
2017-07-10T13:06:03.323Z,60.80
2017-07-10T13:08:31.491Z,58.50
2017-07-10T13:11:00.327Z,56.70
2017-07-10T13:13:29.165Z,56.40
2017-07-10T13:15:58.011Z,55.70
2017-07-10T13:18:26.858Z,54.40
2017-07-10T13:20:55.023Z,54.80
2017-07-10T13:23:23.100Z,55.70
2017-07-10T13:25:51.588Z,54.80
2017-07-10T13:28:20.069Z,53.70
2017-07-10T13:30:48.140Z,51.70
2017-07-10T13:33:16.313Z,46.90
2017-07-10T13:35:45.204Z,43.70
2017-07-10T13:38:13.252Z,41.90
2017-07-10T13:40:41.544Z,40.70
2017-07-10T13:43:09.618Z,39.90
2017-07-10T13:45:37.796Z,39.80
2017-07-10T13:48:05.962Z,40.30
2017-07-10T13:50:34.040Z,39.60
2017-07-10T13:53:02.092Z,37.10
2017-07-10T13:55:30.184Z,34.60
2017-07-10T13:57:58.256Z,33.30
2017-07-10T14:00:26.436Z,33.90
2017-07-10T14:02:54.487Z,33.90
2017-07-10T14:05:22.540Z,32.60
2017-07-10T14:07:51.470Z,33.40
2017-07-10T14:10:19.522Z,30.90
2017-07-10T14:12:47.588Z,30.30
2017-07-10T14:15:15.783Z,32.80
2017-07-10T14:17:43.857Z,34.60
2017-07-10T14:20:11.928Z,35.20
2017-07-10T14:22:40.098Z,35.80
2017-07-10T14:25:08.170Z,30.10
2017-07-10T14:27:36.249Z,31.20
2017-07-10T14:30:04.421Z,29.70
2017-07-10T14:32:32.480Z,29.30
2017-07-10T14:35:00.563Z,29.00
2017-07-10T14:37:28.666Z,29.50
2017-07-10T14:39:56.808Z,29.10
2017-07-10T14:42:24.880Z,28.80
2017-07-10T14:44:53.055Z,28.90
2017-07-10T14:47:21.108Z,28.40
2017-07-10T14:49:49.200Z,28.20
2017-07-10T14:52:17.366Z,27.60
2017-07-10T14:54:45.449Z,28.00
2017-07-10T14:57:13.519Z,27.00
2017-07-10T14:59:41.698Z,27.30
2017-07-10T15:02:09.759Z,27.10
2017-07-10T15:04:37.836Z,28.00
2017-07-10T15:07:05.903Z,28.00
2017-07-10T15:09:34.076Z,28.40
2017-07-10T15:12:02.146Z,31.90
2017-07-10T15:14:30.272Z,32.50
2017-07-10T15:16:59.117Z,34.70
2017-07-10T15:19:27.290Z,34.60
2017-07-10T15:21:55.370Z,34.10
2017-07-10T15:24:23.452Z,36.00
2017-07-10T15:26:51.602Z,32.80
2017-07-10T15:29:19.684Z,32.70
2017-07-10T15:31:47.760Z,34.60
2017-07-10T15:34:15.932Z,36.60
2017-07-10T15:36:44.095Z,39.10
2017-07-10T15:39:12.276Z,39.60
2017-07-10T15:41:40.348Z,41.50
2017-07-10T15:44:08.414Z,41.70
2017-07-10T15:46:36.495Z,42.20
2017-07-10T15:49:04.604Z,42.20
2017-07-10T15:51:32.735Z,42.90
2017-07-10T15:54:00.806Z,44.10
2017-07-10T15:56:28.987Z,44.90
2017-07-10T15:58:57.051Z,45.00
2017-07-10T16:01:25.227Z,45.50
2017-07-10T16:03:53.300Z,46.40
2017-07-10T16:06:21.784Z,46.90
2017-07-10T16:08:50.355Z,47.70
2017-07-10T16:11:18.434Z,47.60
2017-07-10T16:13:46.906Z,47.90
2017-07-10T16:16:14.971Z,48.00
2017-07-10T16:18:43.466Z,49.00
2017-07-10T16:21:11.643Z,48.70
2017-07-10T16:23:40.127Z,47.80
2017-07-10T16:26:08.304Z,46.20
2017-07-10T16:28:36.784Z,45.20
2017-07-10T16:31:04.959Z,45.10
2017-07-10T16:33:33.062Z,45.20
2017-07-10T16:36:01.139Z,45.20
2017-07-10T16:38:29.194Z,45.60
2017-07-10T16:40:57.342Z,46.10
2017-07-10T16:43:25.927Z,46.90
2017-07-10T16:45:54.417Z,47.10
2017-07-10T16:48:22.512Z,47.00
2017-07-10T16:50:50.670Z,47.30
2017-07-10T16:53:18.832Z,47.00
2017-07-10T16:55:47.317Z,46.60
2017-07-10T16:58:15.392Z,47.00
2017-07-10T17:00:43.556Z,47.00
2017-07-10T17:03:11.636Z,46.90
2017-07-10T17:05:39.715Z,47.60
2017-07-10T17:08:08.292Z,47.70
2017-07-10T17:10:36.628Z,48.10
2017-07-10T17:13:05.142Z,48.10
2017-07-10T17:15:33.320Z,48.60
2017-07-10T17:18:02.620Z,49.60
2017-07-10T17:20:30.691Z,50.40
2017-07-10T17:22:59.174Z,50.00
2017-07-10T17:25:28.936Z,50.50
2017-07-10T17:27:57.780Z,50.80
2017-07-10T17:30:25.948Z,50.00
2017-07-10T17:32:54.024Z,50.60
2017-07-10T17:35:22.199Z,50.10
2017-07-10T17:37:51.086Z,49.10
2017-07-10T17:40:19.156Z,49.40
2017-07-10T17:42:47.335Z,50.60
2017-07-10T17:45:15.395Z,51.70
2017-07-10T17:47:43.451Z,51.50
2017-07-10T17:50:11.556Z,52.40
2017-07-10T17:52:39.639Z,53.20
2017-07-10T17:55:07.807Z,53.10
2017-07-10T17:57:36.687Z,53.80
2017-07-10T18:00:05.550Z,54.40
2017-07-10T18:02:33.647Z,54.70
2017-07-10T18:05:01.723Z,54.30
2017-07-10T18:07:30.607Z,54.50
2017-07-10T18:09:58.688Z,54.00
2017-07-10T18:12:26.863Z,53.70
2017-07-10T18:14:54.936Z,54.00
2017-07-10T18:17:22.995Z,53.80
2017-07-10T18:19:51.060Z,53.70
2017-07-10T18:22:19.146Z,54.20
2017-07-10T18:24:47.207Z,54.40
2017-07-10T18:27:15.268Z,54.30
2017-07-10T18:29:43.338Z,54.60
2017-07-10T18:32:11.437Z,54.90
2017-07-10T18:34:40.000Z,55.20
2017-07-10T18:37:08.087Z,55.70
2017-07-10T18:39:36.156Z,56.00
2017-07-10T18:42:04.239Z,56.80
2017-07-10T18:44:32.311Z,57.40
2017-07-10T18:47:00.688Z,57.90
2017-07-10T18:49:29.158Z,58.10
2017-07-10T18:51:57.989Z,58.00
2017-07-10T18:54:26.128Z,58.20
2017-07-10T18:56:54.309Z,58.70
2017-07-10T18:59:22.895Z,58.80
2017-07-10T19:01:51.363Z,59.30
2017-07-10T19:04:19.445Z,59.50
2017-07-10T19:06:47.622Z,59.30
2017-07-10T19:09:15.797Z,60.00
2017-07-10T19:11:44.675Z,61.00
2017-07-10T19:14:12.851Z,61.10
2017-07-10T19:16:41.747Z,60.80
2017-07-10T19:19:10.217Z,61.10
2017-07-10T19:21:38.706Z,61.90
2017-07-10T19:24:06.783Z,61.60
2017-07-10T19:26:34.951Z,62.60
2017-07-10T19:29:03.131Z,63.40
2017-07-10T19:31:31.187Z,63.70
2017-07-10T19:34:00.090Z,63.70
2017-07-10T19:36:28.168Z,64.00
2017-07-10T19:38:56.661Z,64.10
2017-07-10T19:41:25.122Z,63.90
2017-07-10T19:43:53.179Z,64.60
2017-07-10T19:46:21.268Z,64.80
2017-07-10T19:48:49.342Z,64.30
2017-07-10T19:51:17.515Z,63.50
2017-07-10T19:53:46.348Z,63.10
2017-07-10T19:56:14.427Z,63.10
2017-07-10T19:58:43.263Z,62.90
2017-07-10T20:01:11.339Z,62.20
2017-07-10T20:03:39.395Z,62.60
2017-07-10T20:06:07.582Z,62.20
2017-07-10T20:08:35.654Z,62.00
2017-07-10T20:11:03.719Z,62.30
2017-07-10T20:13:31.791Z,62.30
2017-07-10T20:15:59.846Z,62.40
2017-07-10T20:18:27.948Z,62.00
2017-07-10T20:20:56.011Z,62.10
2017-07-10T20:23:24.187Z,62.50
2017-07-10T20:25:52.263Z,62.00
2017-07-10T20:28:20.491Z,62.50
2017-07-10T20:30:49.335Z,62.80
2017-07-10T20:33:17.386Z,62.70
2017-07-10T20:35:45.575Z,63.10
2017-07-10T20:38:13.753Z,62.20
2017-07-10T20:40:41.819Z,62.40
2017-07-10T20:43:09.999Z,62.50
2017-07-10T20:45:38.055Z,62.90
2017-07-10T20:48:06.240Z,63.80
2017-07-10T20:50:34.396Z,63.20
2017-07-10T20:53:02.483Z,63.60
2017-07-10T20:55:30.663Z,63.50
2017-07-10T20:57:58.834Z,62.60
2017-07-10T21:00:26.911Z,62.60
2017-07-10T21:02:54.984Z,63.00
2017-07-10T21:05:23.444Z,62.50
2017-07-10T21:07:51.949Z,63.00
2017-07-10T21:10:20.120Z,63.10
2017-07-10T21:12:48.287Z,63.60
2017-07-10T21:15:16.379Z,62.80
2017-07-10T21:17:44.532Z,63.20
2017-07-10T21:20:12.586Z,62.50
2017-07-10T21:22:40.684Z,62.20
2017-07-10T21:25:08.855Z,62.20
2017-07-10T21:27:36.933Z,61.90
2017-07-10T21:30:05.058Z,62.10
2017-07-10T21:32:33.996Z,62.60
2017-07-10T21:35:02.845Z,62.00
2017-07-10T21:37:31.304Z,61.90
2017-07-10T21:39:59.364Z,62.10
2017-07-10T21:42:27.427Z,62.50
2017-07-10T21:44:55.507Z,63.20
2017-07-10T21:47:23.564Z,62.60
2017-07-10T21:49:51.670Z,62.30
2017-07-10T21:52:19.719Z,62.90
2017-07-10T21:54:47.817Z,62.90
2017-07-10T21:57:15.852Z,63.50
2017-07-10T21:59:44.314Z,63.10
2017-07-10T22:02:12.382Z,63.00
2017-07-10T22:04:40.462Z,62.70
2017-07-10T22:07:09.291Z,62.60
2017-07-10T22:09:38.890Z,63.90
2017-07-10T22:12:06.943Z,63.50
2017-07-10T22:14:34.998Z,63.80
2017-07-10T22:17:03.083Z,63.60
2017-07-10T22:19:31.903Z,63.60
2017-07-10T22:22:00.034Z,63.70
2017-07-10T22:24:28.202Z,63.80
2017-07-10T22:26:56.690Z,63.70
2017-07-10T22:29:24.815Z,63.60
2017-07-10T22:31:53.661Z,65.00
2017-07-10T22:34:21.724Z,64.30
2017-07-10T22:36:50.216Z,64.10
2017-07-10T22:39:18.391Z,63.90
2017-07-10T22:41:46.964Z,64.30
2017-07-10T22:44:15.044Z,64.30
2017-07-10T22:46:43.212Z,64.60
2017-07-10T22:49:11.282Z,64.50
2017-07-10T22:51:39.365Z,64.50
2017-07-10T22:54:07.536Z,64.50
2017-07-10T22:56:35.604Z,65.00
2017-07-10T22:59:04.827Z,64.90
2017-07-10T23:01:32.882Z,64.00
2017-07-10T23:04:01.047Z,64.10
2017-07-10T23:06:29.128Z,63.70
2017-07-10T23:08:57.183Z,64.10
2017-07-10T23:11:25.654Z,64.10
2017-07-10T23:13:54.151Z,64.20
2017-07-10T23:16:22.239Z,64.00
2017-07-10T23:18:50.398Z,64.20
2017-07-10T23:21:18.477Z,64.90
2017-07-10T23:23:46.642Z,64.70
2017-07-10T23:26:14.827Z,64.70
2017-07-10T23:31:16.595Z,64.60
2017-07-10T23:33:45.079Z,64.60
2017-07-10T23:36:13.138Z,65.10
2017-07-10T23:38:41.743Z,65.10
2017-07-10T23:41:09.906Z,64.90
2017-07-10T23:43:37.959Z,65.10
2017-07-10T23:46:06.034Z,64.70
2017-07-10T23:48:34.090Z,64.90
2017-07-10T23:51:02.190Z,64.80
2017-07-10T23:53:30.690Z,64.80
2017-07-10T23:55:58.856Z,64.40
2017-07-10T23:58:26.939Z,64.50
